sensor_id;sensor_type;location;lat;lon;timestamp;temperature;humidity
56172;DHT22;42052;41.634;-0.946;2022-10-22T00:00:57;26.00;55.80
56172;DHT22;42052;41.634;-0.946;2022-10-22T00:03:23;26.00;55.80
56172;DHT22;42052;41.634;-0.946;2022-10-22T00:05:49;26.00;55.80
56172;DHT22;42052;41.634;-0.946;2022-10-22T00:08:15;26.00;55.70
56172;DHT22;42052;41.634;-0.946;2022-10-22T00:10:41;26.00;55.70
56172;DHT22;42052;41.634;-0.946;2022-10-22T00:13:07;25.90;55.80
56172;DHT22;42052;41.634;-0.946;2022-10-22T00:15:33;25.90;55.80
56172;DHT22;42052;41.634;-0.946;2022-10-22T00:17:59;25.90;55.70
56172;DHT22;42052;41.634;-0.946;2022-10-22T00:20:25;26.00;55.70
56172;DHT22;42052;41.634;-0.946;2022-10-22T00:22:51;26.00;55.70
56172;DHT22;42052;41.634;-0.946;2022-10-22T00:25:17;26.00;55.70
56172;DHT22;42052;41.634;-0.946;2022-10-22T00:27:42;26.00;55.60
56172;DHT22;42052;41.634;-0.946;2022-10-22T00:30:09;26.00;55.60
56172;DHT22;42052;41.634;-0.946;2022-10-22T00:32:35;26.00;55.50
56172;DHT22;42052;41.634;-0.946;2022-10-22T00:35:00;26.00;55.60
56172;DHT22;42052;41.634;-0.946;2022-10-22T00:37:26;26.00;55.60
56172;DHT22;42052;41.634;-0.946;2022-10-22T00:39:52;26.00;55.70
56172;DHT22;42052;41.634;-0.946;2022-10-22T00:42:24;26.00;55.70
56172;DHT22;42052;41.634;-0.946;2022-10-22T00:45:22;26.00;55.60
56172;DHT22;42052;41.634;-0.946;2022-10-22T00:52:54;26.00;55.60
56172;DHT22;42052;41.634;-0.946;2022-10-22T00:55:21;26.00;55.60
56172;DHT22;42052;41.634;-0.946;2022-10-22T00:57:48;26.00;55.60
56172;DHT22;42052;41.634;-0.946;2022-10-22T01:00:15;26.00;55.70
56172;DHT22;42052;41.634;-0.946;2022-10-22T01:02:41;25.90;55.70
56172;DHT22;42052;41.634;-0.946;2022-10-22T01:05:07;25.90;55.60
56172;DHT22;42052;41.634;-0.946;2022-10-22T01:07:40;26.00;55.70
56172;DHT22;42052;41.634;-0.946;2022-10-22T01:12:57;26.00;55.70
56172;DHT22;42052;41.634;-0.946;2022-10-22T01:16:18;25.90;55.70
56172;DHT22;42052;41.634;-0.946;2022-10-22T01:29:15;25.90;55.70
56172;DHT22;42052;41.634;-0.946;2022-10-22T01:31:46;25.90;55.70
56172;DHT22;42052;41.634;-0.946;2022-10-22T01:34:16;25.90;55.70
56172;DHT22;42052;41.634;-0.946;2022-10-22T01:36:44;25.90;55.70
56172;DHT22;42052;41.634;-0.946;2022-10-22T01:39:11;25.90;55.70
56172;DHT22;42052;41.634;-0.946;2022-10-22T01:41:41;25.90;55.90
56172;DHT22;42052;41.634;-0.946;2022-10-22T01:44:25;25.90;55.70
56172;DHT22;42052;41.634;-0.946;2022-10-22T01:47:04;25.90;55.70
56172;DHT22;42052;41.634;-0.946;2022-10-22T02:00:11;25.90;55.70
56172;DHT22;42052;41.634;-0.946;2022-10-22T02:07:57;25.90;55.80
56172;DHT22;42052;41.634;-0.946;2022-10-22T02:10:25;25.90;55.80
56172;DHT22;42052;41.634;-0.946;2022-10-22T02:12:53;25.90;55.80
56172;DHT22;42052;41.634;-0.946;2022-10-22T02:15:23;25.90;55.90
56172;DHT22;42052;41.634;-0.946;2022-10-22T02:17:52;25.90;55.80
56172;DHT22;42052;41.634;-0.946;2022-10-22T02:20:27;25.90;55.90
56172;DHT22;42052;41.634;-0.946;2022-10-22T02:22:54;25.90;55.90
56172;DHT22;42052;41.634;-0.946;2022-10-22T02:25:22;25.90;55.90
56172;DHT22;42052;41.634;-0.946;2022-10-22T02:27:56;25.90;55.90
56172;DHT22;42052;41.634;-0.946;2022-10-22T02:30:26;25.90;55.90
56172;DHT22;42052;41.634;-0.946;2022-10-22T02:33:05;25.90;55.90
56172;DHT22;42052;41.634;-0.946;2022-10-22T02:35:33;25.90;55.80
56172;DHT22;42052;41.634;-0.946;2022-10-22T02:38:00;25.90;55.90
56172;DHT22;42052;41.634;-0.946;2022-10-22T02:40:28;25.90;55.80
56172;DHT22;42052;41.634;-0.946;2022-10-22T02:42:55;25.80;55.80
56172;DHT22;42052;41.634;-0.946;2022-10-22T02:45:21;25.90;55.90
56172;DHT22;42052;41.634;-0.946;2022-10-22T02:47:46;25.90;55.80
56172;DHT22;42052;41.634;-0.946;2022-10-22T02:50:12;25.80;55.80
56172;DHT22;42052;41.634;-0.946;2022-10-22T02:52:39;25.80;55.80
56172;DHT22;42052;41.634;-0.946;2022-10-22T02:55:05;25.80;55.90
56172;DHT22;42052;41.634;-0.946;2022-10-22T02:57:32;25.80;55.90
56172;DHT22;42052;41.634;-0.946;2022-10-22T02:59:58;25.80;55.80
56172;DHT22;42052;41.634;-0.946;2022-10-22T03:02:24;25.80;55.90
56172;DHT22;42052;41.634;-0.946;2022-10-22T03:04:50;25.80;55.80
56172;DHT22;42052;41.634;-0.946;2022-10-22T03:07:16;25.90;55.90
56172;DHT22;42052;41.634;-0.946;2022-10-22T03:09:42;25.80;55.80
56172;DHT22;42052;41.634;-0.946;2022-10-22T03:12:08;25.80;55.80
56172;DHT22;42052;41.634;-0.946;2022-10-22T03:14:34;25.80;56.50
56172;DHT22;42052;41.634;-0.946;2022-10-22T03:17:00;25.80;55.90
56172;DHT22;42052;41.634;-0.946;2022-10-22T03:19:26;25.80;55.80
56172;DHT22;42052;41.634;-0.946;2022-10-22T03:22:12;25.80;55.70
56172;DHT22;42052;41.634;-0.946;2022-10-22T03:24:46;25.80;55.70
56172;DHT22;42052;41.634;-0.946;2022-10-22T03:27:14;25.80;55.80
56172;DHT22;42052;41.634;-0.946;2022-10-22T03:29:41;25.80;55.70
56172;DHT22;42052;41.634;-0.946;2022-10-22T03:32:07;25.80;55.70
56172;DHT22;42052;41.634;-0.946;2022-10-22T03:34:33;25.80;55.70
56172;DHT22;42052;41.634;-0.946;2022-10-22T03:37:00;25.80;55.70
56172;DHT22;42052;41.634;-0.946;2022-10-22T03:39:28;25.80;55.70
56172;DHT22;42052;41.634;-0.946;2022-10-22T03:41:55;25.80;55.80
56172;DHT22;42052;41.634;-0.946;2022-10-22T03:44:21;25.80;55.80
56172;DHT22;42052;41.634;-0.946;2022-10-22T03:46:47;25.80;55.70
56172;DHT22;42052;41.634;-0.946;2022-10-22T03:49:13;25.80;55.70
56172;DHT22;42052;41.634;-0.946;2022-10-22T03:51:39;25.80;55.70
56172;DHT22;42052;41.634;-0.946;2022-10-22T03:54:05;25.80;55.70
56172;DHT22;42052;41.634;-0.946;2022-10-22T03:56:32;25.80;55.80
56172;DHT22;42052;41.634;-0.946;2022-10-22T03:58:59;25.80;55.80
56172;DHT22;42052;41.634;-0.946;2022-10-22T04:01:26;25.80;55.70
56172;DHT22;42052;41.634;-0.946;2022-10-22T04:03:52;25.80;55.80
56172;DHT22;42052;41.634;-0.946;2022-10-22T04:06:18;25.80;55.80
56172;DHT22;42052;41.634;-0.946;2022-10-22T04:08:45;25.80;55.70
56172;DHT22;42052;41.634;-0.946;2022-10-22T04:11:12;25.80;55.80
56172;DHT22;42052;41.634;-0.946;2022-10-22T04:13:38;25.80;55.80
56172;DHT22;42052;41.634;-0.946;2022-10-22T04:16:13;25.80;55.80
56172;DHT22;42052;41.634;-0.946;2022-10-22T04:18:40;25.80;55.80
56172;DHT22;42052;41.634;-0.946;2022-10-22T04:21:08;25.80;55.70
56172;DHT22;42052;41.634;-0.946;2022-10-22T04:23:33;25.80;55.70
56172;DHT22;42052;41.634;-0.946;2022-10-22T04:26:04;25.80;55.70
56172;DHT22;42052;41.634;-0.946;2022-10-22T04:28:31;25.80;55.60
56172;DHT22;42052;41.634;-0.946;2022-10-22T04:30:56;25.80;55.60
56172;DHT22;42052;41.634;-0.946;2022-10-22T04:33:22;25.80;55.60
56172;DHT22;42052;41.634;-0.946;2022-10-22T04:35:48;25.80;55.70
56172;DHT22;42052;41.634;-0.946;2022-10-22T04:38:14;25.70;55.60
56172;DHT22;42052;41.634;-0.946;2022-10-22T04:40:40;25.70;55.50
56172;DHT22;42052;41.634;-0.946;2022-10-22T04:43:06;25.70;55.50
56172;DHT22;42052;41.634;-0.946;2022-10-22T04:45:33;25.80;55.50
56172;DHT22;42052;41.634;-0.946;2022-10-22T04:47:59;25.80;55.50
56172;DHT22;42052;41.634;-0.946;2022-10-22T04:50:25;25.80;55.40
56172;DHT22;42052;41.634;-0.946;2022-10-22T04:52:51;25.80;55.40
56172;DHT22;42052;41.634;-0.946;2022-10-22T04:55:17;25.80;55.40
56172;DHT22;42052;41.634;-0.946;2022-10-22T04:57:43;25.80;55.30
56172;DHT22;42052;41.634;-0.946;2022-10-22T05:00:09;25.80;55.30
56172;DHT22;42052;41.634;-0.946;2022-10-22T05:02:36;25.80;55.50
56172;DHT22;42052;41.634;-0.946;2022-10-22T05:05:02;25.80;56.10
56172;DHT22;42052;41.634;-0.946;2022-10-22T05:07:28;25.80;55.30
56172;DHT22;42052;41.634;-0.946;2022-10-22T05:09:54;25.80;55.30
56172;DHT22;42052;41.634;-0.946;2022-10-22T05:12:20;25.80;55.30
56172;DHT22;42052;41.634;-0.946;2022-10-22T05:14:46;25.70;55.20
56172;DHT22;42052;41.634;-0.946;2022-10-22T05:17:12;25.80;55.30
56172;DHT22;42052;41.634;-0.946;2022-10-22T05:19:38;25.80;55.30
56172;DHT22;42052;41.634;-0.946;2022-10-22T05:22:04;25.80;55.30
56172;DHT22;42052;41.634;-0.946;2022-10-22T05:24:31;25.80;55.20
56172;DHT22;42052;41.634;-0.946;2022-10-22T05:26:58;25.80;55.20
56172;DHT22;42052;41.634;-0.946;2022-10-22T05:29:25;25.80;55.20
56172;DHT22;42052;41.634;-0.946;2022-10-22T05:31:51;25.80;55.20
56172;DHT22;42052;41.634;-0.946;2022-10-22T05:34:18;25.80;55.20
56172;DHT22;42052;41.634;-0.946;2022-10-22T05:36:44;25.80;55.10
56172;DHT22;42052;41.634;-0.946;2022-10-22T05:39:10;25.80;55.10
56172;DHT22;42052;41.634;-0.946;2022-10-22T05:41:36;25.80;55.10
56172;DHT22;42052;41.634;-0.946;2022-10-22T05:44:03;25.70;55.10
56172;DHT22;42052;41.634;-0.946;2022-10-22T05:46:32;25.70;55.00
56172;DHT22;42052;41.634;-0.946;2022-10-22T05:49:00;25.70;55.10
56172;DHT22;42052;41.634;-0.946;2022-10-22T05:51:28;25.70;55.10
56172;DHT22;42052;41.634;-0.946;2022-10-22T05:53:58;25.70;55.10
56172;DHT22;42052;41.634;-0.946;2022-10-22T05:56:25;25.70;55.10
56172;DHT22;42052;41.634;-0.946;2022-10-22T05:58:51;25.70;55.10
56172;DHT22;42052;41.634;-0.946;2022-10-22T06:01:20;25.70;55.10
56172;DHT22;42052;41.634;-0.946;2022-10-22T06:03:47;25.70;55.10
56172;DHT22;42052;41.634;-0.946;2022-10-22T06:06:17;25.70;55.10
56172;DHT22;42052;41.634;-0.946;2022-10-22T06:08:48;25.70;55.10
56172;DHT22;42052;41.634;-0.946;2022-10-22T06:11:15;25.70;55.10
56172;DHT22;42052;41.634;-0.946;2022-10-22T06:13:43;25.70;55.10
56172;DHT22;42052;41.634;-0.946;2022-10-22T06:16:10;25.70;55.10
56172;DHT22;42052;41.634;-0.946;2022-10-22T06:18:36;25.70;55.10
56172;DHT22;42052;41.634;-0.946;2022-10-22T06:21:20;25.70;55.10
56172;DHT22;42052;41.634;-0.946;2022-10-22T06:23:45;25.70;55.10
56172;DHT22;42052;41.634;-0.946;2022-10-22T06:26:11;25.70;55.10
56172;DHT22;42052;41.634;-0.946;2022-10-22T06:28:37;25.70;55.00
56172;DHT22;42052;41.634;-0.946;2022-10-22T06:31:04;25.70;55.00
56172;DHT22;42052;41.634;-0.946;2022-10-22T06:33:31;25.70;55.00
56172;DHT22;42052;41.634;-0.946;2022-10-22T06:36:13;25.70;54.90
56172;DHT22;42052;41.634;-0.946;2022-10-22T06:38:39;25.70;55.00
56172;DHT22;42052;41.634;-0.946;2022-10-22T06:41:08;25.70;54.90
56172;DHT22;42052;41.634;-0.946;2022-10-22T06:43:34;25.70;55.00
56172;DHT22;42052;41.634;-0.946;2022-10-22T06:46:06;25.70;55.00
56172;DHT22;42052;41.634;-0.946;2022-10-22T06:48:33;25.70;55.00
56172;DHT22;42052;41.634;-0.946;2022-10-22T06:51:03;25.70;54.90
56172;DHT22;42052;41.634;-0.946;2022-10-22T06:53:30;25.70;54.90
56172;DHT22;42052;41.634;-0.946;2022-10-22T06:55:56;25.70;54.90
56172;DHT22;42052;41.634;-0.946;2022-10-22T06:58:21;25.70;54.90
56172;DHT22;42052;41.634;-0.946;2022-10-22T07:00:47;25.70;54.80
56172;DHT22;42052;41.634;-0.946;2022-10-22T07:03:14;25.70;54.90
56172;DHT22;42052;41.634;-0.946;2022-10-22T07:05:40;25.70;54.80
56172;DHT22;42052;41.634;-0.946;2022-10-22T07:08:06;25.70;54.80
56172;DHT22;42052;41.634;-0.946;2022-10-22T07:10:33;25.70;54.80
56172;DHT22;42052;41.634;-0.946;2022-10-22T07:12:59;25.70;54.70
56172;DHT22;42052;41.634;-0.946;2022-10-22T07:15:25;25.70;54.70
56172;DHT22;42052;41.634;-0.946;2022-10-22T07:17:50;25.70;54.70
56172;DHT22;42052;41.634;-0.946;2022-10-22T07:20:17;25.70;54.70
56172;DHT22;42052;41.634;-0.946;2022-10-22T07:22:45;25.60;54.70
56172;DHT22;42052;41.634;-0.946;2022-10-22T07:25:11;25.70;54.60
56172;DHT22;42052;41.634;-0.946;2022-10-22T07:27:37;25.80;54.70
56172;DHT22;42052;41.634;-0.946;2022-10-22T07:30:03;25.70;54.50
56172;DHT22;42052;41.634;-0.946;2022-10-22T07:32:29;25.70;53.70
56172;DHT22;42052;41.634;-0.946;2022-10-22T07:34:55;25.60;52.80
56172;DHT22;42052;41.634;-0.946;2022-10-22T07:37:21;25.60;52.00
56172;DHT22;42052;41.634;-0.946;2022-10-22T07:39:48;25.50;52.00
56172;DHT22;42052;41.634;-0.946;2022-10-22T07:42:14;25.50;51.50
56172;DHT22;42052;41.634;-0.946;2022-10-22T07:44:40;25.40;51.20
56172;DHT22;42052;41.634;-0.946;2022-10-22T07:47:06;25.30;51.40
56172;DHT22;42052;41.634;-0.946;2022-10-22T07:49:31;25.30;51.40
56172;DHT22;42052;41.634;-0.946;2022-10-22T07:51:57;25.20;51.10
56172;DHT22;42052;41.634;-0.946;2022-10-22T07:54:24;25.20;51.20
56172;DHT22;42052;41.634;-0.946;2022-10-22T07:56:49;25.20;51.30
56172;DHT22;42052;41.634;-0.946;2022-10-22T07:59:15;25.20;51.40
56172;DHT22;42052;41.634;-0.946;2022-10-22T08:01:41;25.20;51.40
56172;DHT22;42052;41.634;-0.946;2022-10-22T08:04:08;25.20;51.50
56172;DHT22;42052;41.634;-0.946;2022-10-22T08:06:34;25.10;51.30
56172;DHT22;42052;41.634;-0.946;2022-10-22T08:09:00;25.10;51.40
56172;DHT22;42052;41.634;-0.946;2022-10-22T08:11:26;25.10;51.60
56172;DHT22;42052;41.634;-0.946;2022-10-22T08:13:52;25.00;51.60
56172;DHT22;42052;41.634;-0.946;2022-10-22T08:16:18;25.00;51.70
56172;DHT22;42052;41.634;-0.946;2022-10-22T08:18:44;25.00;51.90
56172;DHT22;42052;41.634;-0.946;2022-10-22T08:21:11;25.00;51.90
56172;DHT22;42052;41.634;-0.946;2022-10-22T08:23:37;25.00;51.90
56172;DHT22;42052;41.634;-0.946;2022-10-22T08:26:04;25.00;51.80
56172;DHT22;42052;41.634;-0.946;2022-10-22T08:28:30;24.90;51.60
56172;DHT22;42052;41.634;-0.946;2022-10-22T08:31:00;24.90;51.60
56172;DHT22;42052;41.634;-0.946;2022-10-22T08:33:26;24.90;51.50
56172;DHT22;42052;41.634;-0.946;2022-10-22T08:35:52;24.90;51.50
56172;DHT22;42052;41.634;-0.946;2022-10-22T08:38:19;24.90;51.60
56172;DHT22;42052;41.634;-0.946;2022-10-22T08:40:49;24.90;51.50
56172;DHT22;42052;41.634;-0.946;2022-10-22T08:43:44;24.90;51.60
56172;DHT22;42052;41.634;-0.946;2022-10-22T08:46:31;24.90;51.70
56172;DHT22;42052;41.634;-0.946;2022-10-22T08:49:00;24.90;51.70
56172;DHT22;42052;41.634;-0.946;2022-10-22T08:51:32;24.90;51.80
56172;DHT22;42052;41.634;-0.946;2022-10-22T08:56:37;24.90;51.50
56172;DHT22;42052;41.634;-0.946;2022-10-22T08:59:13;25.00;51.40
56172;DHT22;42052;41.634;-0.946;2022-10-22T09:01:48;24.90;51.40
56172;DHT22;42052;41.634;-0.946;2022-10-22T09:04:30;25.00;51.40
56172;DHT22;42052;41.634;-0.946;2022-10-22T09:06:58;25.00;51.40
56172;DHT22;42052;41.634;-0.946;2022-10-22T09:09:32;25.00;51.60
56172;DHT22;42052;41.634;-0.946;2022-10-22T09:12:00;25.00;51.20
56172;DHT22;42052;41.634;-0.946;2022-10-22T09:14:27;25.00;50.90
56172;DHT22;42052;41.634;-0.946;2022-10-22T09:17:15;25.00;50.80
56172;DHT22;42052;41.634;-0.946;2022-10-22T09:20:15;25.00;50.40
56172;DHT22;42052;41.634;-0.946;2022-10-22T09:25:31;25.00;49.80
56172;DHT22;42052;41.634;-0.946;2022-10-22T09:28:00;25.10;49.70
56172;DHT22;42052;41.634;-0.946;2022-10-22T09:30:44;25.00;49.80
56172;DHT22;42052;41.634;-0.946;2022-10-22T09:33:26;25.10;49.90
56172;DHT22;42052;41.634;-0.946;2022-10-22T09:36:00;25.10;49.70
56172;DHT22;42052;41.634;-0.946;2022-10-22T09:38:39;25.10;50.40
56172;DHT22;42052;41.634;-0.946;2022-10-22T09:41:06;25.10;49.40
56172;DHT22;42052;41.634;-0.946;2022-10-22T09:43:33;25.20;49.20
56172;DHT22;42052;41.634;-0.946;2022-10-22T09:46:06;25.20;48.80
56172;DHT22;42052;41.634;-0.946;2022-10-22T09:48:40;25.10;48.40
56172;DHT22;42052;41.634;-0.946;2022-10-22T09:51:23;25.20;48.60
56172;DHT22;42052;41.634;-0.946;2022-10-22T09:53:58;25.20;48.80
56172;DHT22;42052;41.634;-0.946;2022-10-22T09:56:38;25.20;49.50
56172;DHT22;42052;41.634;-0.946;2022-10-22T09:59:16;25.20;50.40
56172;DHT22;42052;41.634;-0.946;2022-10-22T10:01:43;25.30;50.80
56172;DHT22;42052;41.634;-0.946;2022-10-22T10:04:12;25.30;50.80
56172;DHT22;42052;41.634;-0.946;2022-10-22T10:06:40;25.30;51.10
56172;DHT22;42052;41.634;-0.946;2022-10-22T10:09:15;25.30;50.90
56172;DHT22;42052;41.634;-0.946;2022-10-22T10:11:47;25.30;51.10
56172;DHT22;42052;41.634;-0.946;2022-10-22T10:16:42;25.30;51.20
56172;DHT22;42052;41.634;-0.946;2022-10-22T10:37:45;25.30;49.60
56172;DHT22;42052;41.634;-0.946;2022-10-22T10:42:45;25.30;48.70
56172;DHT22;42052;41.634;-0.946;2022-10-22T10:51:02;25.40;48.30
56172;DHT22;42052;41.634;-0.946;2022-10-22T11:07:17;25.40;48.40
56172;DHT22;42052;41.634;-0.946;2022-10-22T11:10:20;25.30;48.50
56172;DHT22;42052;41.634;-0.946;2022-10-22T11:12:45;25.30;48.50
56172;DHT22;42052;41.634;-0.946;2022-10-22T11:15:36;25.30;48.50
56172;DHT22;42052;41.634;-0.946;2022-10-22T11:18:47;25.40;48.50
56172;DHT22;42052;41.634;-0.946;2022-10-22T11:21:18;25.30;48.50
56172;DHT22;42052;41.634;-0.946;2022-10-22T11:26:43;25.40;48.50
56172;DHT22;42052;41.634;-0.946;2022-10-22T11:29:23;25.40;48.30
56172;DHT22;42052;41.634;-0.946;2022-10-22T11:31:51;25.40;48.20
56172;DHT22;42052;41.634;-0.946;2022-10-22T11:34:30;25.40;48.20
56172;DHT22;42052;41.634;-0.946;2022-10-22T11:36:58;25.40;48.40
56172;DHT22;42052;41.634;-0.946;2022-10-22T11:39:50;25.40;48.60
56172;DHT22;42052;41.634;-0.946;2022-10-22T11:42:22;25.40;48.40
56172;DHT22;42052;41.634;-0.946;2022-10-22T11:45:05;25.40;48.40
56172;DHT22;42052;41.634;-0.946;2022-10-22T11:48:13;25.40;48.00
56172;DHT22;42052;41.634;-0.946;2022-10-22T11:58:31;25.50;48.10
56172;DHT22;42052;41.634;-0.946;2022-10-22T12:01:16;25.40;48.10
56172;DHT22;42052;41.634;-0.946;2022-10-22T12:11:15;25.40;48.30
56172;DHT22;42052;41.634;-0.946;2022-10-22T12:16:52;25.50;48.60
56172;DHT22;42052;41.634;-0.946;2022-10-22T12:19:29;25.50;48.70
56172;DHT22;42052;41.634;-0.946;2022-10-22T12:22:09;25.40;48.90
56172;DHT22;42052;41.634;-0.946;2022-10-22T12:24:40;25.50;49.10
56172;DHT22;42052;41.634;-0.946;2022-10-22T12:29:55;25.50;49.30
56172;DHT22;42052;41.634;-0.946;2022-10-22T12:32:23;25.40;49.40
56172;DHT22;42052;41.634;-0.946;2022-10-22T12:34:53;25.40;49.30
56172;DHT22;42052;41.634;-0.946;2022-10-22T12:37:20;25.50;49.30
56172;DHT22;42052;41.634;-0.946;2022-10-22T12:39:46;25.50;49.10
56172;DHT22;42052;41.634;-0.946;2022-10-22T12:42:13;25.50;49.00
56172;DHT22;42052;41.634;-0.946;2022-10-22T12:44:39;25.50;48.90
56172;DHT22;42052;41.634;-0.946;2022-10-22T12:47:06;25.50;49.00
56172;DHT22;42052;41.634;-0.946;2022-10-22T12:49:40;25.50;49.00
56172;DHT22;42052;41.634;-0.946;2022-10-22T12:52:19;25.50;49.10
56172;DHT22;42052;41.634;-0.946;2022-10-22T12:54:49;25.50;49.00
56172;DHT22;42052;41.634;-0.946;2022-10-22T12:57:18;25.60;48.40
56172;DHT22;42052;41.634;-0.946;2022-10-22T12:59:47;25.60;49.10
56172;DHT22;42052;41.634;-0.946;2022-10-22T13:02:18;25.50;49.00
56172;DHT22;42052;41.634;-0.946;2022-10-22T13:07:52;25.50;49.10
56172;DHT22;42052;41.634;-0.946;2022-10-22T13:10:24;25.60;49.70
56172;DHT22;42052;41.634;-0.946;2022-10-22T13:12:54;25.50;49.00
56172;DHT22;42052;41.634;-0.946;2022-10-22T13:18:21;25.50;48.40
56172;DHT22;42052;41.634;-0.946;2022-10-22T13:20:58;25.50;48.10
56172;DHT22;42052;41.634;-0.946;2022-10-22T13:23:30;25.50;48.00
56172;DHT22;42052;41.634;-0.946;2022-10-22T13:26:13;25.50;48.00
56172;DHT22;42052;41.634;-0.946;2022-10-22T13:28:40;25.60;48.00
56172;DHT22;42052;41.634;-0.946;2022-10-22T13:31:24;25.60;47.90
56172;DHT22;42052;41.634;-0.946;2022-10-22T13:33:54;25.60;47.70
56172;DHT22;42052;41.634;-0.946;2022-10-22T13:36:21;25.70;47.80
56172;DHT22;42052;41.634;-0.946;2022-10-22T13:38:47;25.70;47.60
56172;DHT22;42052;41.634;-0.946;2022-10-22T13:41:25;25.80;47.60
56172;DHT22;42052;41.634;-0.946;2022-10-22T13:43:52;25.70;47.60
56172;DHT22;42052;41.634;-0.946;2022-10-22T13:46:18;25.70;47.50
56172;DHT22;42052;41.634;-0.946;2022-10-22T13:48:45;25.80;47.60
56172;DHT22;42052;41.634;-0.946;2022-10-22T13:51:22;25.80;47.70
56172;DHT22;42052;41.634;-0.946;2022-10-22T13:53:50;25.80;47.80
56172;DHT22;42052;41.634;-0.946;2022-10-22T13:56:19;25.80;47.90
56172;DHT22;42052;41.634;-0.946;2022-10-22T13:58:46;25.80;48.00
56172;DHT22;42052;41.634;-0.946;2022-10-22T14:03:48;25.80;47.90
56172;DHT22;42052;41.634;-0.946;2022-10-22T14:06:16;25.80;48.00
56172;DHT22;42052;41.634;-0.946;2022-10-22T14:08:44;25.80;48.10
56172;DHT22;42052;41.634;-0.946;2022-10-22T14:11:11;25.90;48.00
56172;DHT22;42052;41.634;-0.946;2022-10-22T14:13:37;25.90;48.20
56172;DHT22;42052;41.634;-0.946;2022-10-22T14:16:05;25.90;48.10
56172;DHT22;42052;41.634;-0.946;2022-10-22T14:18:32;25.90;48.20
56172;DHT22;42052;41.634;-0.946;2022-10-22T14:21:00;25.90;48.10
56172;DHT22;42052;41.634;-0.946;2022-10-22T14:23:32;25.90;48.10
56172;DHT22;42052;41.634;-0.946;2022-10-22T14:26:00;25.90;48.10
56172;DHT22;42052;41.634;-0.946;2022-10-22T14:28:27;25.90;48.20
56172;DHT22;42052;41.634;-0.946;2022-10-22T14:30:53;25.90;48.20
56172;DHT22;42052;41.634;-0.946;2022-10-22T14:33:30;25.90;48.10
56172;DHT22;42052;41.634;-0.946;2022-10-22T14:35:58;25.90;48.10
56172;DHT22;42052;41.634;-0.946;2022-10-22T14:38:24;26.00;48.10
56172;DHT22;42052;41.634;-0.946;2022-10-22T14:40:50;25.90;48.20
56172;DHT22;42052;41.634;-0.946;2022-10-22T14:43:27;25.90;48.20
56172;DHT22;42052;41.634;-0.946;2022-10-22T14:45:54;25.90;48.90
56172;DHT22;42052;41.634;-0.946;2022-10-22T14:48:20;25.90;48.20
56172;DHT22;42052;41.634;-0.946;2022-10-22T14:50:46;26.00;48.20
56172;DHT22;42052;41.634;-0.946;2022-10-22T14:53:13;25.90;48.20
56172;DHT22;42052;41.634;-0.946;2022-10-22T14:55:42;25.90;48.40
56172;DHT22;42052;41.634;-0.946;2022-10-22T14:58:09;26.00;48.50
56172;DHT22;42052;41.634;-0.946;2022-10-22T15:00:35;25.90;48.50
56172;DHT22;42052;41.634;-0.946;2022-10-22T15:03:02;25.90;49.30
56172;DHT22;42052;41.634;-0.946;2022-10-22T15:05:28;26.00;48.70
56172;DHT22;42052;41.634;-0.946;2022-10-22T15:07:54;26.00;48.70
56172;DHT22;42052;41.634;-0.946;2022-10-22T15:10:20;26.00;48.70
56172;DHT22;42052;41.634;-0.946;2022-10-22T15:12:46;26.00;48.70
56172;DHT22;42052;41.634;-0.946;2022-10-22T15:15:12;26.00;48.60
56172;DHT22;42052;41.634;-0.946;2022-10-22T15:17:38;26.10;48.60
56172;DHT22;42052;41.634;-0.946;2022-10-22T15:20:04;26.00;48.60
56172;DHT22;42052;41.634;-0.946;2022-10-22T15:22:31;26.00;48.60
56172;DHT22;42052;41.634;-0.946;2022-10-22T15:25:01;26.00;48.60
56172;DHT22;42052;41.634;-0.946;2022-10-22T15:27:27;26.00;48.70
56172;DHT22;42052;41.634;-0.946;2022-10-22T15:29:55;26.00;48.60
56172;DHT22;42052;41.634;-0.946;2022-10-22T15:32:24;26.00;48.50
56172;DHT22;42052;41.634;-0.946;2022-10-22T15:34:51;26.00;48.30
56172;DHT22;42052;41.634;-0.946;2022-10-22T15:37:18;26.00;48.20
56172;DHT22;42052;41.634;-0.946;2022-10-22T15:39:44;26.00;48.00
56172;DHT22;42052;41.634;-0.946;2022-10-22T15:42:10;26.10;47.90
56172;DHT22;42052;41.634;-0.946;2022-10-22T15:44:36;26.10;47.90
56172;DHT22;42052;41.634;-0.946;2022-10-22T15:47:04;26.10;48.10
56172;DHT22;42052;41.634;-0.946;2022-10-22T15:49:33;26.10;47.80
56172;DHT22;42052;41.634;-0.946;2022-10-22T15:52:00;26.10;47.80
56172;DHT22;42052;41.634;-0.946;2022-10-22T15:54:28;26.00;47.70
56172;DHT22;42052;41.634;-0.946;2022-10-22T15:56:55;26.00;47.50
56172;DHT22;42052;41.634;-0.946;2022-10-22T15:59:21;26.00;47.40
56172;DHT22;42052;41.634;-0.946;2022-10-22T16:01:47;26.00;47.40
56172;DHT22;42052;41.634;-0.946;2022-10-22T16:04:14;26.00;47.10
56172;DHT22;42052;41.634;-0.946;2022-10-22T16:06:47;26.00;46.80
56172;DHT22;42052;41.634;-0.946;2022-10-22T16:09:19;26.00;46.70
56172;DHT22;42052;41.634;-0.946;2022-10-22T16:11:45;26.00;46.50
56172;DHT22;42052;41.634;-0.946;2022-10-22T16:14:13;26.00;46.60
56172;DHT22;42052;41.634;-0.946;2022-10-22T16:16:45;26.00;46.60
56172;DHT22;42052;41.634;-0.946;2022-10-22T16:19:12;26.00;47.30
56172;DHT22;42052;41.634;-0.946;2022-10-22T16:21:39;26.00;46.60
56172;DHT22;42052;41.634;-0.946;2022-10-22T16:24:06;26.00;46.60
56172;DHT22;42052;41.634;-0.946;2022-10-22T16:26:32;26.00;46.60
56172;DHT22;42052;41.634;-0.946;2022-10-22T16:28:58;26.00;46.60
56172;DHT22;42052;41.634;-0.946;2022-10-22T16:31:24;26.00;46.70
56172;DHT22;42052;41.634;-0.946;2022-10-22T16:33:50;26.00;46.80
56172;DHT22;42052;41.634;-0.946;2022-10-22T16:36:18;26.00;46.80
56172;DHT22;42052;41.634;-0.946;2022-10-22T16:38:44;26.00;46.90
56172;DHT22;42052;41.634;-0.946;2022-10-22T16:41:19;26.00;46.90
56172;DHT22;42052;41.634;-0.946;2022-10-22T16:43:47;26.00;46.90
56172;DHT22;42052;41.634;-0.946;2022-10-22T16:46:15;26.00;46.90
56172;DHT22;42052;41.634;-0.946;2022-10-22T16:48:46;26.00;47.10
56172;DHT22;42052;41.634;-0.946;2022-10-22T16:51:15;26.00;47.10
56172;DHT22;42052;41.634;-0.946;2022-10-22T16:53:41;26.00;47.00
56172;DHT22;42052;41.634;-0.946;2022-10-22T16:56:08;26.00;47.10
56172;DHT22;42052;41.634;-0.946;2022-10-22T16:58:35;26.00;47.10
56172;DHT22;42052;41.634;-0.946;2022-10-22T17:01:06;25.90;47.10
56172;DHT22;42052;41.634;-0.946;2022-10-22T17:03:32;25.90;47.90
56172;DHT22;42052;41.634;-0.946;2022-10-22T17:05:59;25.90;47.30
56172;DHT22;42052;41.634;-0.946;2022-10-22T17:08:24;25.90;47.30
56172;DHT22;42052;41.634;-0.946;2022-10-22T17:10:50;25.90;47.30
56172;DHT22;42052;41.634;-0.946;2022-10-22T17:13:16;25.90;47.40
56172;DHT22;42052;41.634;-0.946;2022-10-22T17:15:42;25.90;47.60
56172;DHT22;42052;41.634;-0.946;2022-10-22T17:18:09;25.80;47.60
56172;DHT22;42052;41.634;-0.946;2022-10-22T17:20:39;25.90;47.60
56172;DHT22;42052;41.634;-0.946;2022-10-22T17:23:05;25.80;47.60